sensor_id;sensor_type;location;lat;lon;timestamp;pressure;altitude;pressure_sealevel;temperature;humidity
10366;BME280;5229;41.820;23.490;2023-02-28T00:00:26;90345.22;;;10.25;66.10
10366;BME280;5229;41.820;23.490;2023-02-28T00:02:53;90352.53;;;10.23;65.67
10366;BME280;5229;41.820;23.490;2023-02-28T00:05:21;90351.47;;;10.24;66.07
10366;BME280;5229;41.820;23.490;2023-02-28T00:07:49;90355.13;;;10.23;65.43
10366;BME280;5229;41.820;23.490;2023-02-28T00:10:20;90362.41;;;10.21;65.79
10366;BME280;5229;41.820;23.490;2023-02-28T00:12:48;90362.41;;;10.21;66.44
10366;BME280;5229;41.820;23.490;2023-02-28T00:15:16;90356.38;;;10.25;65.76
10366;BME280;5229;41.820;23.490;2023-02-28T00:17:44;90359.13;;;10.29;66.37
10366;BME280;5229;41.820;23.490;2023-02-28T00:20:12;90358.53;;;10.32;66.07
10366;BME280;5229;41.820;23.490;2023-02-28T00:22:41;90360.28;;;10.36;65.78
10366;BME280;5229;41.820;23.490;2023-02-28T00:25:09;90367.47;;;10.39;65.47
10366;BME280;5229;41.820;23.490;2023-02-28T00:27:39;90357.19;;;10.34;66.18
10366;BME280;5229;41.820;23.490;2023-02-28T00:30:10;90356.25;;;10.30;66.04
10366;BME280;5229;41.820;23.490;2023-02-28T00:32:37;90348.00;;;10.28;65.88
10366;BME280;5229;41.820;23.490;2023-02-28T00:35:05;90351.47;;;10.24;65.77
10366;BME280;5229;41.820;23.490;2023-02-28T00:37:32;90356.00;;;10.18;65.64
10366;BME280;5229;41.820;23.490;2023-02-28T00:39:59;90358.41;;;10.15;66.10
10366;BME280;5229;41.820;23.490;2023-02-28T00:42:26;90359.75;;;10.12;66.25
10366;BME280;5229;41.820;23.490;2023-02-28T00:44:54;90360.03;;;10.11;66.10
10366;BME280;5229;41.820;23.490;2023-02-28T00:47:21;90353.13;;;10.06;66.78
10366;BME280;5229;41.820;23.490;2023-02-28T00:49:48;90340.47;;;10.05;66.53
10366;BME280;5229;41.820;23.490;2023-02-28T00:52:15;90353.41;;;10.05;66.10
10366;BME280;5229;41.820;23.490;2023-02-28T00:54:41;90351.22;;;9.98;66.37
10366;BME280;5229;41.820;23.490;2023-02-28T00:57:08;90347.66;;;9.94;66.29
10366;BME280;5229;41.820;23.490;2023-02-28T00:59:35;90347.38;;;9.96;66.33
10366;BME280;5229;41.820;23.490;2023-02-28T01:02:03;90344.22;;;9.99;66.66
10366;BME280;5229;41.820;23.490;2023-02-28T01:04:30;90349.00;;;10.05;66.19
10366;BME280;5229;41.820;23.490;2023-02-28T01:06:57;90353.81;;;10.12;66.30
10366;BME280;5229;41.820;23.490;2023-02-28T01:09:23;90360.69;;;10.16;66.34
10366;BME280;5229;41.820;23.490;2023-02-28T01:11:51;90360.13;;;10.19;65.80
10366;BME280;5229;41.820;23.490;2023-02-28T01:14:18;90357.16;;;10.26;66.38
10366;BME280;5229;41.820;23.490;2023-02-28T01:16:44;90354.72;;;10.29;66.09
10366;BME280;5229;41.820;23.490;2023-02-28T01:19:13;90345.88;;;10.30;65.37
10366;BME280;5229;41.820;23.490;2023-02-28T01:21:40;90348.75;;;10.29;66.07
10366;BME280;5229;41.820;23.490;2023-02-28T01:24:07;90347.53;;;10.26;65.63
10366;BME280;5229;41.820;23.490;2023-02-28T01:26:33;90348.59;;;10.25;65.64
10366;BME280;5229;41.820;23.490;2023-02-28T01:29:00;90355.13;;;10.23;66.08
10366;BME280;5229;41.820;23.490;2023-02-28T01:31:27;90346.88;;;10.21;66.14
10366;BME280;5229;41.820;23.490;2023-02-28T01:33:54;90339.38;;;10.19;65.92
10366;BME280;5229;41.820;23.490;2023-02-28T01:36:23;90337.88;;;10.18;65.87
10366;BME280;5229;41.820;23.490;2023-02-28T01:38:50;90341.53;;;10.17;65.94
10366;BME280;5229;41.820;23.490;2023-02-28T01:41:19;90339.97;;;10.16;66.56
10366;BME280;5229;41.820;23.490;2023-02-28T01:43:55;90335.84;;;10.15;65.73
10366;BME280;5229;41.820;23.490;2023-02-28T01:46:23;90334.78;;;10.16;65.54
10366;BME280;5229;41.820;23.490;2023-02-28T01:48:52;90340.53;;;10.13;66.02
10366;BME280;5229;41.820;23.490;2023-02-28T01:51:24;90337.50;;;10.11;66.12
10366;BME280;5229;41.820;23.490;2023-02-28T01:53:55;90347.66;;;10.08;66.20
10366;BME280;5229;41.820;23.490;2023-02-28T01:56:26;90350.81;;;10.05;65.76
10366;BME280;5229;41.820;23.490;2023-02-28T01:58:54;90357.03;;;10.04;65.96
10366;BME280;5229;41.820;23.490;2023-02-28T02:01:22;90363.00;;;10.04;66.01
10366;BME280;5229;41.820;23.490;2023-02-28T02:03:51;90361.47;;;10.03;65.98
10366;BME280;5229;41.820;23.490;2023-02-28T02:06:22;90359.47;;;10.00;66.13
10366;BME280;5229;41.820;23.490;2023-02-28T02:08:49;90361.84;;;9.97;66.20
10366;BME280;5229;41.820;23.490;2023-02-28T02:11:19;90363.03;;;9.91;65.89
10366;BME280;5229;41.820;23.490;2023-02-28T02:17:04;90370.50;;;9.79;66.54
10366;BME280;5229;41.820;23.490;2023-02-28T02:25:59;90383.09;;;9.58;66.09
10366;BME280;5229;41.820;23.490;2023-02-28T02:28:56;90380.69;;;9.48;66.67
10366;BME280;5229;41.820;23.490;2023-02-28T02:31:47;90381.34;;;9.40;66.93
10366;BME280;5229;41.820;23.490;2023-02-28T02:34:26;90381.94;;;9.37;66.52
10366;BME280;5229;41.820;23.490;2023-02-28T02:37:03;90386.16;;;9.33;66.25
10366;BME280;5229;41.820;23.490;2023-02-28T02:39:40;90384.69;;;9.27;66.48
10366;BME280;5229;41.820;23.490;2023-02-28T02:42:14;90384.00;;;9.22;66.23
10366;BME280;5229;41.820;23.490;2023-02-28T02:44:47;90386.41;;;9.18;66.55
10366;BME280;5229;41.820;23.490;2023-02-28T02:47:18;90394.47;;;9.17;66.29
10366;BME280;5229;41.820;23.490;2023-02-28T02:49:50;90397.31;;;9.15;66.34
10366;BME280;5229;41.820;23.490;2023-02-28T02:52:22;90399.41;;;9.13;66.54
10366;BME280;5229;41.820;23.490;2023-02-28T02:54:52;90398.47;;;9.09;66.63
10366;BME280;5229;41.820;23.490;2023-02-28T02:57:23;90404.97;;;9.07;66.46
10366;BME280;5229;41.820;23.490;2023-02-28T02:59:53;90409.94;;;9.03;66.21
10366;BME280;5229;41.820;23.490;2023-02-28T03:02:22;90415.47;;;8.96;66.71
10366;BME280;5229;41.820;23.490;2023-02-28T03:04:55;90411.16;;;8.92;66.58
10366;BME280;5229;41.820;23.490;2023-02-28T03:07:25;90414.28;;;8.89;66.51
10366;BME280;5229;41.820;23.490;2023-02-28T03:09:53;90415.34;;;8.88;65.92
10366;BME280;5229;41.820;23.490;2023-02-28T03:12:20;90415.44;;;8.83;65.77
10366;BME280;5229;41.820;23.490;2023-02-28T03:14:56;90416.84;;;8.75;66.07
10366;BME280;5229;41.820;23.490;2023-02-28T03:17:43;90413.00;;;8.73;66.33
10366;BME280;5229;41.820;23.490;2023-02-28T03:20:21;90418.88;;;8.78;66.91
10366;BME280;5229;41.820;23.490;2023-02-28T03:23:02;90417.81;;;8.79;66.41
10366;BME280;5229;41.820;23.490;2023-02-28T03:25:38;90424.81;;;8.79;66.36
10366;BME280;5229;41.820;23.490;2023-02-28T03:28:12;90424.50;;;8.80;66.20
10366;BME280;5229;41.820;23.490;2023-02-28T03:30:46;90425.78;;;8.83;66.33
10366;BME280;5229;41.820;23.490;2023-02-28T03:33:20;90425.19;;;8.86;66.67
10366;BME280;5229;41.820;23.490;2023-02-28T03:35:53;90423.09;;;8.88;66.35
10366;BME280;5229;41.820;23.490;2023-02-28T03:38:27;90426.19;;;8.90;66.41
10366;BME280;5229;41.820;23.490;2023-02-28T03:40:58;90424.63;;;8.89;66.70
10366;BME280;5229;41.820;23.490;2023-02-28T03:43:29;90426.94;;;8.90;66.36
10366;BME280;5229;41.820;23.490;2023-02-28T03:45:59;90425.59;;;8.93;66.94
10366;BME280;5229;41.820;23.490;2023-02-28T03:48:32;90432.81;;;8.96;66.88
10366;BME280;5229;41.820;23.490;2023-02-28T03:51:03;90435.88;;;8.98;66.54
10366;BME280;5229;41.820;23.490;2023-02-28T03:53:35;90435.88;;;8.98;66.62
10366;BME280;5229;41.820;23.490;2023-02-28T03:56:06;90432.25;;;8.99;66.68
10366;BME280;5229;41.820;23.490;2023-02-28T03:58:38;90434.25;;;9.02;66.44
10366;BME280;5229;41.820;23.490;2023-02-28T04:01:08;90438.03;;;9.10;66.74
10366;BME280;5229;41.820;23.490;2023-02-28T04:03:37;90428.56;;;9.19;67.23
10366;BME280;5229;41.820;23.490;2023-02-28T04:06:07;90431.63;;;9.21;67.05
10366;BME280;5229;41.820;23.490;2023-02-28T04:08:39;90432.88;;;9.23;66.74
10366;BME280;5229;41.820;23.490;2023-02-28T04:11:22;90436.94;;;9.29;67.08
10366;BME280;5229;41.820;23.490;2023-02-28T04:13:49;90429.06;;;9.34;66.63
10366;BME280;5229;41.820;23.490;2023-02-28T04:16:16;90431.09;;;9.37;66.82
10366;BME280;5229;41.820;23.490;2023-02-28T04:18:43;90432.44;;;9.35;66.79
10366;BME280;5229;41.820;23.490;2023-02-28T04:21:11;90428.00;;;9.35;66.89
10366;BME280;5229;41.820;23.490;2023-02-28T04:23:38;90441.22;;;9.34;67.03
10366;BME280;5229;41.820;23.490;2023-02-28T04:26:05;90434.75;;;9.36;66.93
10366;BME280;5229;41.820;23.490;2023-02-28T04:28:32;90439.34;;;9.39;67.28
10366;BME280;5229;41.820;23.490;2023-02-28T04:31:02;90443.38;;;9.45;67.27
10366;BME280;5229;41.820;23.490;2023-02-28T04:33:30;90446.34;;;9.52;67.10
10366;BME280;5229;41.820;23.490;2023-02-28T04:35:58;90451.19;;;9.59;67.31
10366;BME280;5229;41.820;23.490;2023-02-28T04:38:27;90453.16;;;9.62;67.45
10366;BME280;5229;41.820;23.490;2023-02-28T04:40:53;90452.59;;;9.65;67.15
10366;BME280;5229;41.820;23.490;2023-02-28T04:43:22;90459.50;;;9.69;66.93
10366;BME280;5229;41.820;23.490;2023-02-28T04:45:49;90458.94;;;9.72;66.85
10366;BME280;5229;41.820;23.490;2023-02-28T04:48:16;90460.69;;;9.77;66.89
10366;BME280;5229;41.820;23.490;2023-02-28T04:50:43;90463.28;;;9.77;66.71
10366;BME280;5229;41.820;23.490;2023-02-28T04:53:09;90462.50;;;9.76;66.57
10366;BME280;5229;41.820;23.490;2023-02-28T04:55:38;90463.84;;;9.74;66.83
10366;BME280;5229;41.820;23.490;2023-02-28T04:58:05;90453.38;;;9.65;66.93
10366;BME280;5229;41.820;23.490;2023-02-28T05:00:32;90466.41;;;9.60;66.96
10366;BME280;5229;41.820;23.490;2023-02-28T05:02:58;90459.97;;;9.58;67.21
10366;BME280;5229;41.820;23.490;2023-02-28T05:05:25;90461.03;;;9.57;67.75
10366;BME280;5229;41.820;23.490;2023-02-28T05:07:52;90459.22;;;9.57;67.24
10366;BME280;5229;41.820;23.490;2023-02-28T05:10:21;90480.13;;;9.61;66.99
10366;BME280;5229;41.820;23.490;2023-02-28T05:12:49;90484.72;;;9.64;67.06
10366;BME280;5229;41.820;23.490;2023-02-28T05:15:18;90476.19;;;9.63;66.84
10366;BME280;5229;41.820;23.490;2023-02-28T05:17:44;90474.66;;;9.62;66.85
10366;BME280;5229;41.820;23.490;2023-02-28T05:20:12;90482.69;;;9.61;66.99
10366;BME280;5229;41.820;23.490;2023-02-28T05:22:40;90479.84;;;9.62;66.92
10366;BME280;5229;41.820;23.490;2023-02-28T05:25:08;90481.66;;;9.62;66.69
10366;BME280;5229;41.820;23.490;2023-02-28T05:27:37;90484.22;;;9.62;66.89
10366;BME280;5229;41.820;23.490;2023-02-28T05:30:07;90494.03;;;9.65;67.14
10366;BME280;5229;41.820;23.490;2023-02-28T05:32:35;90490.88;;;9.68;67.12
10366;BME280;5229;41.820;23.490;2023-02-28T05:35:03;90488.66;;;9.75;66.86
10366;BME280;5229;41.820;23.490;2023-02-28T05:37:30;90493.47;;;9.81;66.55
10366;BME280;5229;41.820;23.490;2023-02-28T05:39:57;90494.47;;;9.85;66.69
10366;BME280;5229;41.820;23.490;2023-02-28T05:42:23;90499.25;;;9.92;66.47
10366;BME280;5229;41.820;23.490;2023-02-28T05:44:50;90503.28;;;9.98;66.72
10366;BME280;5229;41.820;23.490;2023-02-28T05:47:18;90509.91;;;10.04;66.15
10366;BME280;5229;41.820;23.490;2023-02-28T05:49:45;90508.28;;;10.08;66.38
10366;BME280;5229;41.820;23.490;2023-02-28T05:52:12;90501.19;;;10.13;66.84
10366;BME280;5229;41.820;23.490;2023-02-28T05:54:39;90513.13;;;10.14;66.45
10366;BME280;5229;41.820;23.490;2023-02-28T05:57:06;90517.13;;;10.20;66.47
10366;BME280;5229;41.820;23.490;2023-02-28T05:59:33;90519.63;;;10.25;67.18
10366;BME280;5229;41.820;23.490;2023-02-28T06:02:00;90510.41;;;10.33;66.15
10366;BME280;5229;41.820;23.490;2023-02-28T06:04:28;90520.56;;;10.43;67.18
10366;BME280;5229;41.820;23.490;2023-02-28T06:06:55;90509.25;;;10.52;66.15
10366;BME280;5229;41.820;23.490;2023-02-28T06:09:23;90505.97;;;10.60;66.79
10366;BME280;5229;41.820;23.490;2023-02-28T06:11:50;90511.53;;;10.67;66.31
10366;BME280;5229;41.820;23.490;2023-02-28T06:14:18;90516.59;;;10.72;66.71
10366;BME280;5229;41.820;23.490;2023-02-28T06:16:45;90513.16;;;10.77;65.88
10366;BME280;5229;41.820;23.490;2023-02-28T06:19:12;90520.53;;;10.83;66.02
10366;BME280;5229;41.820;23.490;2023-02-28T06:21:42;90520.44;;;10.88;66.11
10366;BME280;5229;41.820;23.490;2023-02-28T06:24:09;90519.25;;;10.94;65.77
10366;BME280;5229;41.820;23.490;2023-02-28T06:26:36;90520.69;;;11.00;66.49
10366;BME280;5229;41.820;23.490;2023-02-28T06:29:03;90520.59;;;11.05;65.29
10366;BME280;5229;41.820;23.490;2023-02-28T06:31:30;90520.81;;;11.17;65.99
10366;BME280;5229;41.820;23.490;2023-02-28T06:33:56;90525.31;;;11.25;65.57
10366;BME280;5229;41.820;23.490;2023-02-28T06:36:23;90529.03;;;11.33;65.64
10366;BME280;5229;41.820;23.490;2023-02-28T06:38:51;90526.91;;;11.35;65.61
10366;BME280;5229;41.820;23.490;2023-02-28T06:41:22;90533.06;;;11.39;65.41
10366;BME280;5229;41.820;23.490;2023-02-28T06:43:49;90531.69;;;11.41;64.73
10366;BME280;5229;41.820;23.490;2023-02-28T06:46:16;90537.25;;;11.48;65.56
10366;BME280;5229;41.820;23.490;2023-02-28T06:48:43;90536.53;;;11.56;65.00
10366;BME280;5229;41.820;23.490;2023-02-28T06:51:12;90531.44;;;11.65;64.83
10366;BME280;5229;41.820;23.490;2023-02-28T06:53:40;90537.13;;;11.75;64.99
10366;BME280;5229;41.820;23.490;2023-02-28T06:56:10;90542.56;;;11.88;64.65
10366;BME280;5229;41.820;23.490;2023-02-28T06:58:37;90547.03;;;11.96;64.33
10366;BME280;5229;41.820;23.490;2023-02-28T07:01:04;90544.00;;;12.02;64.90
10366;BME280;5229;41.820;23.490;2023-02-28T07:03:32;90539.59;;;12.03;64.28
10366;BME280;5229;41.820;23.490;2023-02-28T07:05:59;90543.25;;;12.02;64.24
10366;BME280;5229;41.820;23.490;2023-02-28T07:08:26;90549.81;;;11.99;64.07
10366;BME280;5229;41.820;23.490;2023-02-28T07:10:53;90547.97;;;12.00;63.86
10366;BME280;5229;41.820;23.490;2023-02-28T07:13:22;90543.56;;;12.00;63.40
10366;BME280;5229;41.820;23.490;2023-02-28T07:15:56;90546.22;;;12.09;62.79
10366;BME280;5229;41.820;23.490;2023-02-28T07:18:23;90545.97;;;12.19;62.77
10366;BME280;5229;41.820;23.490;2023-02-28T07:20:50;90544.16;;;12.28;62.08
10366;BME280;5229;41.820;23.490;2023-02-28T07:23:17;90547.56;;;12.37;61.97
10366;BME280;5229;41.820;23.490;2023-02-28T07:25:44;90541.63;;;12.45;61.94
10366;BME280;5229;41.820;23.490;2023-02-28T07:28:11;90545.75;;;12.46;62.33
10366;BME280;5229;41.820;23.490;2023-02-28T07:30:40;90545.16;;;12.49;63.08
10366;BME280;5229;41.820;23.490;2023-02-28T07:33:07;90545.16;;;12.49;63.00
10366;BME280;5229;41.820;23.490;2023-02-28T07:35:34;90544.06;;;12.50;63.17
10366;BME280;5229;41.820;23.490;2023-02-28T07:38:01;90545.91;;;12.49;62.51
10366;BME280;5229;41.820;23.490;2023-02-28T07:40:29;90543.47;;;12.53;63.05
10366;BME280;5229;41.820;23.490;2023-02-28T07:42:56;90544.09;;;12.58;63.05
10366;BME280;5229;41.820;23.490;2023-02-28T07:45:25;90538.16;;;12.66;62.75
10366;BME280;5229;41.820;23.490;2023-02-28T07:47:53;90538.19;;;12.75;62.83
10366;BME280;5229;41.820;23.490;2023-02-28T07:50:19;90535.00;;;12.86;62.95
10366;BME280;5229;41.820;23.490;2023-02-28T07:52:46;90540.88;;;13.00;62.49
10366;BME280;5229;41.820;23.490;2023-02-28T07:55:13;90530.00;;;13.07;61.99
10366;BME280;5229;41.820;23.490;2023-02-28T07:57:42;90535.50;;;13.14;62.19
10366;BME280;5229;41.820;23.490;2023-02-28T08:00:10;90530.94;;;13.19;61.54
10366;BME280;5229;41.820;23.490;2023-02-28T08:02:38;90538.75;;;13.28;61.44
10366;BME280;5229;41.820;23.490;2023-02-28T08:05:07;90534.63;;;13.44;61.59
10366;BME280;5229;41.820;23.490;2023-02-28T08:07:34;90529.56;;;13.64;60.88
10366;BME280;5229;41.820;23.490;2023-02-28T08:10:01;90529.66;;;13.93;60.85
10366;BME280;5229;41.820;23.490;2023-02-28T08:12:28;90534.47;;;14.46;59.64
10366;BME280;5229;41.820;23.490;2023-02-28T08:14:54;90542.41;;;14.87;58.05
10366;BME280;5229;41.820;23.490;2023-02-28T08:17:21;90540.78;;;15.03;57.78
10366;BME280;5229;41.820;23.490;2023-02-28T08:19:48;90543.53;;;15.07;57.23
10366;BME280;5229;41.820;23.490;2023-02-28T08:22:16;90543.88;;;15.05;57.10
10366;BME280;5229;41.820;23.490;2023-02-28T08:24:43;90538.69;;;14.97;57.12
10366;BME280;5229;41.820;23.490;2023-02-28T08:27:10;90547.19;;;14.85;57.02
10366;BME280;5229;41.820;23.490;2023-02-28T08:29:38;90541.69;;;14.78;57.41
10366;BME280;5229;41.820;23.490;2023-02-28T08:32:05;90542.72;;;14.86;57.55
10366;BME280;5229;41.820;23.490;2023-02-28T08:34:32;90541.88;;;15.02;56.78
10366;BME280;5229;41.820;23.490;2023-02-28T08:36:59;90531.91;;;15.25;56.47
10366;BME280;5229;41.820;23.490;2023-02-28T08:39:27;90535.75;;;15.68;55.74
10366;BME280;5229;41.820;23.490;2023-02-28T08:41:54;90526.22;;;16.17;55.02
10366;BME280;5229;41.820;23.490;2023-02-28T08:44:21;90531.03;;;16.59;53.36
10366;BME280;5229;41.820;23.490;2023-02-28T08:46:48;90534.84;;;16.86;52.37
10366;BME280;5229;41.820;23.490;2023-02-28T08:49:14;90535.84;;;16.93;51.92
10366;BME280;5229;41.820;23.490;2023-02-28T08:51:41;90531.47;;;16.97;51.85
10366;BME280;5229;41.820;23.490;2023-02-28T08:54:08;90533.78;;;16.99;51.14
10366;BME280;5229;41.820;23.490;2023-02-28T08:56:39;90537.13;;;16.99;50.95
10366;BME280;5229;41.820;23.490;2023-02-28T08:59:05;90532.34;;;17.01;50.80
10366;BME280;5229;41.820;23.490;2023-02-28T09:01:32;90527.56;;;17.03;50.01
10366;BME280;5229;41.820;23.490;2023-02-28T09:03:59;90528.31;;;17.04;50.20
10366;BME280;5229;41.820;23.490;2023-02-28T09:06:28;90522.97;;;17.00;49.72
10366;BME280;5229;41.820;23.490;2023-02-28T09:08:56;90531.47;;;16.97;49.94
10366;BME280;5229;41.820;23.490;2023-02-28T09:11:24;90524.50;;;16.89;49.72
10366;BME280;5229;41.820;23.490;2023-02-28T09:13:52;90526.66;;;16.87;49.32
10366;BME280;5229;41.820;23.490;2023-02-28T09:16:21;90529.63;;;16.86;49.31
10366;BME280;5229;41.820;23.490;2023-02-28T09:18:48;90517.59;;;16.73;49.57
10366;BME280;5229;41.820;23.490;2023-02-28T09:21:16;90526.97;;;16.50;50.05
10366;BME280;5229;41.820;23.490;2023-02-28T09:23:45;90514.91;;;16.25;50.33
10366;BME280;5229;41.820;23.490;2023-02-28T09:26:14;90508.31;;;16.07;50.10
10366;BME280;5229;41.820;23.490;2023-02-28T09:28:41;90510.16;;;15.94;50.24
10366;BME280;5229;41.820;23.490;2023-02-28T09:31:12;90506.41;;;15.83;50.84
10366;BME280;5229;41.820;23.490;2023-02-28T09:33:39;90507.75;;;15.69;51.08
10366;BME280;5229;41.820;23.490;2023-02-28T09:36:06;90508.03;;;15.55;51.38
10366;BME280;5229;41.820;23.490;2023-02-28T09:38:33;90503.19;;;15.45;51.13
10366;BME280;5229;41.820;23.490;2023-02-28T09:41:02;90499.47;;;15.46;51.07
10366;BME280;5229;41.820;23.490;2023-02-28T09:43:34;90496.28;;;15.61;51.17
10366;BME280;5229;41.820;23.490;2023-02-28T09:46:09;90487.56;;;15.90;50.90
10366;BME280;5229;41.820;23.490;2023-02-28T09:48:44;90486.63;;;16.06;50.82
10366;BME280;5229;41.820;23.490;2023-02-28T09:51:30;90489.22;;;16.06;49.94
10366;BME280;5229;41.820;23.490;2023-02-28T09:54:00;90492.88;;;16.14;50.63
10366;BME280;5229;41.820;23.490;2023-02-28T09:56:33;90491.34;;;16.25;50.41
10366;BME280;5229;41.820;23.490;2023-02-28T09:59:05;90489.06;;;16.35;50.04
10366;BME280;5229;41.820;23.490;2023-02-28T10:01:39;90478.09;;;16.42;49.88
10366;BME280;5229;41.820;23.490;2023-02-28T10:04:16;90479.06;;;16.49;49.43
10366;BME280;5229;41.820;23.490;2023-02-28T10:06:51;90474.28;;;16.51;49.64
10366;BME280;5229;41.820;23.490;2023-02-28T10:09:22;90472.88;;;16.54;49.23
10366;BME280;5229;41.820;23.490;2023-02-28T10:11:52;90472.97;;;16.45;49.59
10366;BME280;5229;41.820;23.490;2023-02-28T10:14:23;90467.06;;;16.36;49.82
10366;BME280;5229;41.820;23.490;2023-02-28T10:16:54;90464.22;;;16.29;49.27
10366;BME280;5229;41.820;23.490;2023-02-28T10:19:27;90461.91;;;16.28;49.93
10366;BME280;5229;41.820;23.490;2023-02-28T10:22:00;90461.38;;;16.34;49.50
10366;BME280;5229;41.820;23.490;2023-02-28T10:24:33;90458.53;;;16.39;49.39
10366;BME280;5229;41.820;23.490;2023-02-28T10:27:06;90454.22;;;16.43;49.80
10366;BME280;5229;41.820;23.490;2023-02-28T10:29:40;90451.13;;;16.41;49.24
10366;BME280;5229;41.820;23.490;2023-02-28T10:32:11;90449.06;;;16.35;50.00
10366;BME280;5229;41.820;23.490;2023-02-28T10:34:42;90446.63;;;16.30;49.45
10366;BME280;5229;41.820;23.490;2023-02-28T10:37:09;90432.25;;;16.24;49.65
10366;BME280;5229;41.820;23.490;2023-02-28T10:39:39;90430.94;;;16.18;50.05
10366;BME280;5229;41.820;23.490;2023-02-28T10:42:19;90431.03;;;16.09;50.08
10366;BME280;5229;41.820;23.490;2023-02-28T10:44:46;90435.41;;;16.05;50.00
10366;BME280;5229;41.820;23.490;2023-02-28T10:47:14;90439.75;;;16.01;50.27
10366;BME280;5229;41.820;23.490;2023-02-28T10:49:49;90434.38;;;15.98;50.90
10366;BME280;5229;41.820;23.490;2023-02-28T10:52:33;90431.22;;;15.92;50.72
10366;BME280;5229;41.820;23.490;2023-02-28T10:55:15;90427.09;;;15.91;50.70
10366;BME280;5229;41.820;23.490;2023-02-28T10:57:42;90421.94;;;15.95;50.54
10366;BME280;5229;41.820;23.490;2023-02-28T11:00:14;90424.06;;;16.01;50.04
10366;BME280;5229;41.820;23.490;2023-02-28T11:02:41;90415.66;;;16.08;50.40
10366;BME280;5229;41.820;23.490;2023-02-28T11:05:28;90412.16;;;16.16;50.30
10366;BME280;5229;41.820;23.490;2023-02-28T11:07:59;90403.69;;;16.31;50.29
10366;BME280;5229;41.820;23.490;2023-02-28T11:10:31;90400.94;;;16.39;49.97
10366;BME280;5229;41.820;23.490;2023-02-28T11:13:00;90409.88;;;16.38;49.87
10366;BME280;5229;41.820;23.490;2023-02-28T11:15:29;90403.91;;;16.38;49.67
10366;BME280;5229;41.820;23.490;2023-02-28T11:17:58;90406.63;;;16.41;49.92
10366;BME280;5229;41.820;23.490;2023-02-28T11:20:28;90400.13;;;16.47;49.50
10366;BME280;5229;41.820;23.490;2023-02-28T11:22:57;90396.53;;;16.52;49.54
10366;BME280;5229;41.820;23.490;2023-02-28T11:25:29;90399.44;;;16.62;49.40
10366;BME280;5229;41.820;23.490;2023-02-28T11:27:57;90389.06;;;16.66;49.18
10366;BME280;5229;41.820;23.490;2023-02-28T11:30:35;90389.94;;;16.58;48.71
10366;BME280;5229;41.820;23.490;2023-02-28T11:33:21;90380.25;;;16.46;48.97
10366;BME280;5229;41.820;23.490;2023-02-28T11:35:51;90377.53;;;16.43;49.53
10366;BME280;5229;41.820;23.490;2023-02-28T11:38:19;90370.22;;;16.36;49.49
10366;BME280;5229;41.820;23.490;2023-02-28T11:40:49;90377.63;;;16.34;49.34
10366;BME280;5229;41.820;23.490;2023-02-28T11:43:30;90363.66;;;16.30;50.03
10366;BME280;5229;41.820;23.490;2023-02-28T11:46:10;90369.22;;;16.29;49.37
10366;BME280;5229;41.820;23.490;2023-02-28T11:48:45;90366.94;;;16.27;49.77
10366;BME280;5229;41.820;23.490;2023-02-28T11:51:21;90372.81;;;16.24;49.39
10366;BME280;5229;41.820;23.490;2023-02-28T11:54:13;90365.94;;;16.20;49.81
10366;BME280;5229;41.820;23.490;2023-02-28T11:56:44;90365.75;;;16.25;49.79
10366;BME280;5229;41.820;23.490;2023-02-28T11:59:41;90373.47;;;16.21;49.38
10366;BME280;5229;41.820;23.490;2023-02-28T12:02:24;90362.34;;;16.24;49.75
10366;BME280;5229;41.820;23.490;2023-02-28T12:05:11;90366.72;;;16.20;49.32
10366;BME280;5229;41.820;23.490;2023-02-28T12:07:50;90363.00;;;16.21;49.54
10366;BME280;5229;41.820;23.490;2023-02-28T12:10:24;90351.00;;;16.20;49.00
10366;BME280;5229;41.820;23.490;2023-02-28T12:13:03;90351.25;;;16.15;50.01
10366;BME280;5229;41.820;23.490;2023-02-28T12:15:53;90347.75;;;16.11;50.00
10366;BME280;5229;41.820;23.490;2023-02-28T12:18:38;90348.41;;;16.08;50.13
10366;BME280;5229;41.820;23.490;2023-02-28T12:21:13;90341.22;;;16.05;49.58
10366;BME280;5229;41.820;23.490;2023-02-28T12:23:59;90341.88;;;15.90;50.30
10366;BME280;5229;41.820;23.490;2023-02-28T12:26:36;90333.13;;;15.86;50.05
10366;BME280;5229;41.820;23.490;2023-02-28T12:29:15;90339.22;;;15.78;50.01
10366;BME280;5229;41.820;23.490;2023-02-28T12:31:48;90344.47;;;15.78;50.45
10366;BME280;5229;41.820;23.490;2023-02-28T12:34:19;90342.63;;;15.79;50.50
10366;BME280;5229;41.820;23.490;2023-02-28T12:36:48;90345.22;;;15.79;50.39
10366;BME280;5229;41.820;23.490;2023-02-28T12:39:20;90344.03;;;15.76;50.52
10366;BME280;5229;41.820;23.490;2023-02-28T12:41:53;90331.59;;;15.73;50.55
10366;BME280;5229;41.820;23.490;2023-02-28T12:44:23;90337.25;;;15.75;50.93
10366;BME280;5229;41.820;23.490;2023-02-28T12:46:56;90327.03;;;15.70;50.75
10366;BME280;5229;41.820;23.490;2023-02-28T12:49:30;90326.25;;;15.70;51.51
10366;BME280;5229;41.820;23.490;2023-02-28T12:51:59;90323.13;;;15.76;50.88
10366;BME280;5229;41.820;23.490;2023-02-28T12:54:32;90318.75;;;15.80;51.43
10366;BME280;5229;41.820;23.490;2023-02-28T12:57:07;90316.56;;;15.82;51.10
10366;BME280;5229;41.820;23.490;2023-02-28T12:59:40;90312.75;;;15.80;50.94
10366;BME280;5229;41.820;23.490;2023-02-28T13:05:26;90318.19;;;15.63;51.28
10366;BME280;5229;41.820;23.490;2023-02-28T13:08:25;90307.31;;;15.61;51.60
10366;BME280;5229;41.820;23.490;2023-02-28T13:10:58;90307.16;;;15.57;52.16
10366;BME280;5229;41.820;23.490;2023-02-28T13:13:26;90309.56;;;15.50;52.28
10366;BME280;5229;41.820;23.490;2023-02-28T13:16:05;90308.69;;;15.46;52.88
10366;BME280;5229;41.820;23.490;2023-02-28T13:18:35;90304.22;;;15.47;53.11
10366;BME280;5229;41.820;23.490;2023-02-28T13:21:06;90306.06;;;15.46;53.21
10366;BME280;5229;41.820;23.490;2023-02-28T13:29:31;90309.94;;;15.28;54.58
10366;BME280;5229;41.820;23.490;2023-02-28T13:32:19;90315.25;;;15.20;54.75
10366;BME280;5229;41.820;23.490;2023-02-28T13:38:12;90312.47;;;15.04;55.07
10366;BME280;5229;41.820;23.490;2023-02-28T13:40:41;90312.03;;;15.02;54.66